sensor_id;sensor_type;location;lat;lon;timestamp;temperature;humidity
18721;DHT22;9489;50.948;3.114;2023-07-28T00:02:01;18.40;99.90
18721;DHT22;9489;50.948;3.114;2023-07-28T00:04:26;18.40;99.90
18721;DHT22;9489;50.948;3.114;2023-07-28T00:06:52;18.40;99.90
18721;DHT22;9489;50.948;3.114;2023-07-28T00:09:17;18.40;99.90
18721;DHT22;9489;50.948;3.114;2023-07-28T00:11:43;18.40;99.90
18721;DHT22;9489;50.948;3.114;2023-07-28T00:14:08;18.30;99.90
18721;DHT22;9489;50.948;3.114;2023-07-28T00:16:34;18.40;99.90
18721;DHT22;9489;50.948;3.114;2023-07-28T00:18:59;18.40;99.90
18721;DHT22;9489;50.948;3.114;2023-07-28T00:21:26;18.40;99.90
18721;DHT22;9489;50.948;3.114;2023-07-28T00:23:52;18.40;99.90
18721;DHT22;9489;50.948;3.114;2023-07-28T00:26:17;18.40;99.90
18721;DHT22;9489;50.948;3.114;2023-07-28T00:28:43;18.40;99.90
18721;DHT22;9489;50.948;3.114;2023-07-28T00:31:08;18.40;99.90
18721;DHT22;9489;50.948;3.114;2023-07-28T00:33:34;18.40;99.90
18721;DHT22;9489;50.948;3.114;2023-07-28T00:35:59;18.40;99.90
18721;DHT22;9489;50.948;3.114;2023-07-28T00:38:25;18.40;99.90
18721;DHT22;9489;50.948;3.114;2023-07-28T00:40:50;18.40;99.90
18721;DHT22;9489;50.948;3.114;2023-07-28T00:43:16;18.40;99.90
18721;DHT22;9489;50.948;3.114;2023-07-28T00:45:42;18.40;99.90
18721;DHT22;9489;50.948;3.114;2023-07-28T00:48:12;18.40;99.90
18721;DHT22;9489;50.948;3.114;2023-07-28T00:50:40;18.40;99.90
18721;DHT22;9489;50.948;3.114;2023-07-28T00:53:06;18.40;99.90
18721;DHT22;9489;50.948;3.114;2023-07-28T00:55:32;18.50;99.90
18721;DHT22;9489;50.948;3.114;2023-07-28T00:57:58;18.40;99.90
18721;DHT22;9489;50.948;3.114;2023-07-28T01:00:24;18.40;99.90
18721;DHT22;9489;50.948;3.114;2023-07-28T01:02:49;18.40;99.90
18721;DHT22;9489;50.948;3.114;2023-07-28T01:05:15;18.40;99.90
18721;DHT22;9489;50.948;3.114;2023-07-28T01:08:01;18.50;99.90
18721;DHT22;9489;50.948;3.114;2023-07-28T01:10:31;18.50;99.90
18721;DHT22;9489;50.948;3.114;2023-07-28T01:12:58;18.50;99.90
18721;DHT22;9489;50.948;3.114;2023-07-28T01:15:23;18.50;99.90
18721;DHT22;9489;50.948;3.114;2023-07-28T01:17:49;18.50;99.90
18721;DHT22;9489;50.948;3.114;2023-07-28T01:20:16;18.50;99.90
18721;DHT22;9489;50.948;3.114;2023-07-28T01:22:58;18.50;99.90
18721;DHT22;9489;50.948;3.114;2023-07-28T01:25:55;18.50;99.90
18721;DHT22;9489;50.948;3.114;2023-07-28T01:28:22;18.50;99.90
18721;DHT22;9489;50.948;3.114;2023-07-28T01:30:48;18.50;99.90
18721;DHT22;9489;50.948;3.114;2023-07-28T01:33:13;18.50;99.90
18721;DHT22;9489;50.948;3.114;2023-07-28T01:35:39;18.50;99.90
18721;DHT22;9489;50.948;3.114;2023-07-28T01:38:05;18.50;99.90
18721;DHT22;9489;50.948;3.114;2023-07-28T01:40:30;18.50;99.90
18721;DHT22;9489;50.948;3.114;2023-07-28T01:42:56;18.50;99.90
18721;DHT22;9489;50.948;3.114;2023-07-28T01:45:22;18.50;99.90
18721;DHT22;9489;50.948;3.114;2023-07-28T01:47:47;18.60;99.90
18721;DHT22;9489;50.948;3.114;2023-07-28T01:50:13;18.50;99.90
18721;DHT22;9489;50.948;3.114;2023-07-28T01:52:38;18.50;99.90
18721;DHT22;9489;50.948;3.114;2023-07-28T01:55:04;18.50;99.90
18721;DHT22;9489;50.948;3.114;2023-07-28T01:57:33;18.60;99.90
18721;DHT22;9489;50.948;3.114;2023-07-28T01:59:59;18.50;99.90
18721;DHT22;9489;50.948;3.114;2023-07-28T02:02:25;18.60;99.90
18721;DHT22;9489;50.948;3.114;2023-07-28T02:04:50;18.60;99.90
18721;DHT22;9489;50.948;3.114;2023-07-28T02:07:16;18.60;99.90
18721;DHT22;9489;50.948;3.114;2023-07-28T02:09:42;18.60;99.90
18721;DHT22;9489;50.948;3.114;2023-07-28T02:12:07;18.60;99.90
18721;DHT22;9489;50.948;3.114;2023-07-28T02:14:33;18.60;99.90
18721;DHT22;9489;50.948;3.114;2023-07-28T02:16:58;18.60;99.90
18721;DHT22;9489;50.948;3.114;2023-07-28T02:19:25;18.60;99.90
18721;DHT22;9489;50.948;3.114;2023-07-28T02:21:50;18.60;99.90
18721;DHT22;9489;50.948;3.114;2023-07-28T02:24:16;18.60;99.90
18721;DHT22;9489;50.948;3.114;2023-07-28T02:26:41;18.60;99.90
18721;DHT22;9489;50.948;3.114;2023-07-28T02:29:07;18.60;99.90
18721;DHT22;9489;50.948;3.114;2023-07-28T02:31:32;18.60;99.90
18721;DHT22;9489;50.948;3.114;2023-07-28T02:33:58;18.60;99.90
18721;DHT22;9489;50.948;3.114;2023-07-28T02:36:24;18.60;99.90
18721;DHT22;9489;50.948;3.114;2023-07-28T02:38:49;18.60;99.90
18721;DHT22;9489;50.948;3.114;2023-07-28T02:41:15;18.60;99.90
18721;DHT22;9489;50.948;3.114;2023-07-28T02:43:40;18.60;99.90
18721;DHT22;9489;50.948;3.114;2023-07-28T02:46:06;18.60;99.90
18721;DHT22;9489;50.948;3.114;2023-07-28T02:48:32;18.60;99.90
18721;DHT22;9489;50.948;3.114;2023-07-28T02:50:58;18.60;99.90
18721;DHT22;9489;50.948;3.114;2023-07-28T02:53:23;18.60;99.90
18721;DHT22;9489;50.948;3.114;2023-07-28T02:55:49;18.60;99.90
18721;DHT22;9489;50.948;3.114;2023-07-28T02:58:15;18.60;99.90
18721;DHT22;9489;50.948;3.114;2023-07-28T03:00:43;18.60;99.90
18721;DHT22;9489;50.948;3.114;2023-07-28T03:03:10;18.60;99.90
18721;DHT22;9489;50.948;3.114;2023-07-28T03:05:37;18.60;99.90
18721;DHT22;9489;50.948;3.114;2023-07-28T03:08:03;18.60;99.90
18721;DHT22;9489;50.948;3.114;2023-07-28T03:10:29;18.70;99.90
18721;DHT22;9489;50.948;3.114;2023-07-28T03:12:55;18.70;99.90
18721;DHT22;9489;50.948;3.114;2023-07-28T03:15:21;18.70;99.90
18721;DHT22;9489;50.948;3.114;2023-07-28T03:17:52;18.70;99.90
18721;DHT22;9489;50.948;3.114;2023-07-28T03:20:19;18.70;99.90
18721;DHT22;9489;50.948;3.114;2023-07-28T03:22:45;18.70;99.90
18721;DHT22;9489;50.948;3.114;2023-07-28T03:25:12;18.70;99.90
18721;DHT22;9489;50.948;3.114;2023-07-28T03:27:37;18.70;99.90
18721;DHT22;9489;50.948;3.114;2023-07-28T03:30:03;18.70;99.90
18721;DHT22;9489;50.948;3.114;2023-07-28T03:32:32;18.60;99.90
18721;DHT22;9489;50.948;3.114;2023-07-28T03:34:58;18.60;99.90
18721;DHT22;9489;50.948;3.114;2023-07-28T03:37:23;18.50;99.90
18721;DHT22;9489;50.948;3.114;2023-07-28T03:39:49;18.50;99.90
18721;DHT22;9489;50.948;3.114;2023-07-28T03:42:14;18.40;99.90
18721;DHT22;9489;50.948;3.114;2023-07-28T03:44:40;18.40;99.90
18721;DHT22;9489;50.948;3.114;2023-07-28T03:47:07;18.40;99.90
18721;DHT22;9489;50.948;3.114;2023-07-28T03:49:33;18.40;99.90
18721;DHT22;9489;50.948;3.114;2023-07-28T03:51:58;18.40;99.90
18721;DHT22;9489;50.948;3.114;2023-07-28T03:54:24;18.40;99.90
18721;DHT22;9489;50.948;3.114;2023-07-28T03:56:50;18.40;99.90
18721;DHT22;9489;50.948;3.114;2023-07-28T03:59:15;18.40;99.90
18721;DHT22;9489;50.948;3.114;2023-07-28T04:01:41;18.40;99.90
18721;DHT22;9489;50.948;3.114;2023-07-28T04:04:06;18.30;99.90
18721;DHT22;9489;50.948;3.114;2023-07-28T04:06:43;18.20;99.90
18721;DHT22;9489;50.948;3.114;2023-07-28T04:09:10;18.20;99.90
18721;DHT22;9489;50.948;3.114;2023-07-28T04:11:37;18.20;99.90
18721;DHT22;9489;50.948;3.114;2023-07-28T04:14:03;18.20;99.90
18721;DHT22;9489;50.948;3.114;2023-07-28T04:16:29;18.20;99.90
18721;DHT22;9489;50.948;3.114;2023-07-28T04:18:54;18.20;99.90
18721;DHT22;9489;50.948;3.114;2023-07-28T04:21:20;18.20;99.90
18721;DHT22;9489;50.948;3.114;2023-07-28T04:23:45;18.20;99.90
18721;DHT22;9489;50.948;3.114;2023-07-28T04:26:11;18.30;99.90
18721;DHT22;9489;50.948;3.114;2023-07-28T04:28:36;18.30;99.90
18721;DHT22;9489;50.948;3.114;2023-07-28T04:31:02;18.30;99.90
18721;DHT22;9489;50.948;3.114;2023-07-28T04:33:28;18.20;99.90
18721;DHT22;9489;50.948;3.114;2023-07-28T04:35:53;18.20;99.90
18721;DHT22;9489;50.948;3.114;2023-07-28T04:38:19;18.20;99.90
18721;DHT22;9489;50.948;3.114;2023-07-28T04:40:44;18.30;99.90
18721;DHT22;9489;50.948;3.114;2023-07-28T04:43:10;18.20;99.90
18721;DHT22;9489;50.948;3.114;2023-07-28T04:45:36;18.30;99.90
18721;DHT22;9489;50.948;3.114;2023-07-28T04:48:01;18.30;99.90
18721;DHT22;9489;50.948;3.114;2023-07-28T04:50:28;18.30;99.90
18721;DHT22;9489;50.948;3.114;2023-07-28T04:52:54;18.30;99.90
18721;DHT22;9489;50.948;3.114;2023-07-28T04:55:19;18.30;99.90
18721;DHT22;9489;50.948;3.114;2023-07-28T04:57:45;18.30;99.90
18721;DHT22;9489;50.948;3.114;2023-07-28T05:00:12;18.30;99.90
18721;DHT22;9489;50.948;3.114;2023-07-28T05:02:37;18.30;99.90
18721;DHT22;9489;50.948;3.114;2023-07-28T05:05:03;18.40;99.90
18721;DHT22;9489;50.948;3.114;2023-07-28T05:07:29;18.40;99.90
18721;DHT22;9489;50.948;3.114;2023-07-28T05:09:54;18.30;99.90
18721;DHT22;9489;50.948;3.114;2023-07-28T05:12:20;18.40;99.90
18721;DHT22;9489;50.948;3.114;2023-07-28T05:14:46;18.30;99.90
18721;DHT22;9489;50.948;3.114;2023-07-28T05:17:12;18.30;99.90
18721;DHT22;9489;50.948;3.114;2023-07-28T05:19:37;18.30;99.90
18721;DHT22;9489;50.948;3.114;2023-07-28T05:22:03;18.30;99.90
18721;DHT22;9489;50.948;3.114;2023-07-28T05:24:28;18.30;99.90
18721;DHT22;9489;50.948;3.114;2023-07-28T05:26:54;18.30;99.90
18721;DHT22;9489;50.948;3.114;2023-07-28T05:29:20;18.20;99.90
18721;DHT22;9489;50.948;3.114;2023-07-28T05:31:45;18.30;99.90
18721;DHT22;9489;50.948;3.114;2023-07-28T05:34:11;18.30;99.90
18721;DHT22;9489;50.948;3.114;2023-07-28T05:36:39;18.20;99.90
18721;DHT22;9489;50.948;3.114;2023-07-28T05:39:05;18.30;99.90
18721;DHT22;9489;50.948;3.114;2023-07-28T05:41:30;18.20;99.90
18721;DHT22;9489;50.948;3.114;2023-07-28T05:43:56;18.30;99.90
18721;DHT22;9489;50.948;3.114;2023-07-28T05:46:22;18.30;99.90
18721;DHT22;9489;50.948;3.114;2023-07-28T05:48:47;18.30;99.90
18721;DHT22;9489;50.948;3.114;2023-07-28T05:51:13;18.30;99.90
18721;DHT22;9489;50.948;3.114;2023-07-28T05:53:38;18.20;99.90
18721;DHT22;9489;50.948;3.114;2023-07-28T05:56:04;18.20;99.90
18721;DHT22;9489;50.948;3.114;2023-07-28T05:58:29;18.20;99.90
18721;DHT22;9489;50.948;3.114;2023-07-28T06:00:55;18.20;99.90
18721;DHT22;9489;50.948;3.114;2023-07-28T06:03:21;18.20;99.90
18721;DHT22;9489;50.948;3.114;2023-07-28T06:05:47;18.20;99.90
18721;DHT22;9489;50.948;3.114;2023-07-28T06:08:13;18.20;99.90
18721;DHT22;9489;50.948;3.114;2023-07-28T06:10:39;18.30;99.90
18721;DHT22;9489;50.948;3.114;2023-07-28T06:13:04;18.30;99.90
18721;DHT22;9489;50.948;3.114;2023-07-28T06:15:30;18.30;99.90
18721;DHT22;9489;50.948;3.114;2023-07-28T06:17:56;18.30;99.90
18721;DHT22;9489;50.948;3.114;2023-07-28T06:20:22;18.30;99.90
18721;DHT22;9489;50.948;3.114;2023-07-28T06:22:47;18.30;99.90
18721;DHT22;9489;50.948;3.114;2023-07-28T06:25:13;18.40;99.90
18721;DHT22;9489;50.948;3.114;2023-07-28T06:27:39;18.40;99.90
18721;DHT22;9489;50.948;3.114;2023-07-28T06:30:05;18.40;99.90
18721;DHT22;9489;50.948;3.114;2023-07-28T06:32:31;18.50;99.90
18721;DHT22;9489;50.948;3.114;2023-07-28T06:34:56;18.60;99.90
18721;DHT22;9489;50.948;3.114;2023-07-28T06:37:23;18.70;99.90
18721;DHT22;9489;50.948;3.114;2023-07-28T06:39:48;18.70;99.90
18721;DHT22;9489;50.948;3.114;2023-07-28T06:42:14;18.70;99.90
18721;DHT22;9489;50.948;3.114;2023-07-28T06:44:42;18.80;99.90
18721;DHT22;9489;50.948;3.114;2023-07-28T06:47:07;18.80;99.90
18721;DHT22;9489;50.948;3.114;2023-07-28T06:49:33;18.80;99.90
18721;DHT22;9489;50.948;3.114;2023-07-28T06:51:58;18.90;99.90
18721;DHT22;9489;50.948;3.114;2023-07-28T06:54:24;19.00;99.90
18721;DHT22;9489;50.948;3.114;2023-07-28T06:56:50;19.10;99.90
18721;DHT22;9489;50.948;3.114;2023-07-28T06:59:16;19.20;99.90
18721;DHT22;9489;50.948;3.114;2023-07-28T07:01:41;19.30;99.90
18721;DHT22;9489;50.948;3.114;2023-07-28T07:04:07;19.40;99.90
18721;DHT22;9489;50.948;3.114;2023-07-28T07:06:32;19.60;99.90
18721;DHT22;9489;50.948;3.114;2023-07-28T07:08:58;19.80;99.90
18721;DHT22;9489;50.948;3.114;2023-07-28T07:11:24;19.90;99.90
18721;DHT22;9489;50.948;3.114;2023-07-28T07:13:49;20.00;99.90
18721;DHT22;9489;50.948;3.114;2023-07-28T07:16:15;20.10;99.90
18721;DHT22;9489;50.948;3.114;2023-07-28T07:18:45;20.10;99.90
18721;DHT22;9489;50.948;3.114;2023-07-28T07:21:11;20.00;99.90
18721;DHT22;9489;50.948;3.114;2023-07-28T07:23:37;19.90;99.90
18721;DHT22;9489;50.948;3.114;2023-07-28T07:26:03;20.00;99.90
18721;DHT22;9489;50.948;3.114;2023-07-28T07:28:28;20.10;99.90
18721;DHT22;9489;50.948;3.114;2023-07-28T07:30:57;20.00;99.90
18721;DHT22;9489;50.948;3.114;2023-07-28T07:33:23;19.90;99.90
18721;DHT22;9489;50.948;3.114;2023-07-28T07:35:49;19.80;99.90
18721;DHT22;9489;50.948;3.114;2023-07-28T07:38:15;19.70;99.90
18721;DHT22;9489;50.948;3.114;2023-07-28T07:40:40;19.60;99.90
18721;DHT22;9489;50.948;3.114;2023-07-28T07:43:06;19.60;99.90
18721;DHT22;9489;50.948;3.114;2023-07-28T07:45:32;19.50;99.90
18721;DHT22;9489;50.948;3.114;2023-07-28T07:47:58;19.50;99.90
18721;DHT22;9489;50.948;3.114;2023-07-28T07:50:24;19.60;99.90
18721;DHT22;9489;50.948;3.114;2023-07-28T07:52:50;19.60;99.90
18721;DHT22;9489;50.948;3.114;2023-07-28T07:55:15;19.70;99.90
18721;DHT22;9489;50.948;3.114;2023-07-28T07:57:41;19.60;99.90
18721;DHT22;9489;50.948;3.114;2023-07-28T08:00:08;19.60;99.90
18721;DHT22;9489;50.948;3.114;2023-07-28T08:02:34;19.60;99.90
18721;DHT22;9489;50.948;3.114;2023-07-28T08:05:00;19.60;99.90
18721;DHT22;9489;50.948;3.114;2023-07-28T08:07:26;19.60;99.90
18721;DHT22;9489;50.948;3.114;2023-07-28T08:09:51;19.60;99.90
18721;DHT22;9489;50.948;3.114;2023-07-28T08:12:17;19.60;99.90
18721;DHT22;9489;50.948;3.114;2023-07-28T08:14:43;19.60;99.90
18721;DHT22;9489;50.948;3.114;2023-07-28T08:17:09;19.60;99.90
18721;DHT22;9489;50.948;3.114;2023-07-28T08:19:35;19.60;99.90
18721;DHT22;9489;50.948;3.114;2023-07-28T08:22:01;19.60;99.90
18721;DHT22;9489;50.948;3.114;2023-07-28T08:24:29;19.60;99.90
18721;DHT22;9489;50.948;3.114;2023-07-28T08:26:54;19.60;99.90
18721;DHT22;9489;50.948;3.114;2023-07-28T08:29:20;19.60;99.90
18721;DHT22;9489;50.948;3.114;2023-07-28T08:31:46;19.60;99.90
18721;DHT22;9489;50.948;3.114;2023-07-28T08:34:12;19.60;99.90
18721;DHT22;9489;50.948;3.114;2023-07-28T08:36:38;19.50;99.90
18721;DHT22;9489;50.948;3.114;2023-07-28T08:39:04;19.40;99.90
18721;DHT22;9489;50.948;3.114;2023-07-28T08:41:30;19.40;99.90
18721;DHT22;9489;50.948;3.114;2023-07-28T08:43:55;19.60;99.90
18721;DHT22;9489;50.948;3.114;2023-07-28T08:46:22;19.70;99.90
18721;DHT22;9489;50.948;3.114;2023-07-28T08:48:48;19.90;99.90
18721;DHT22;9489;50.948;3.114;2023-07-28T08:51:14;20.20;99.90
18721;DHT22;9489;50.948;3.114;2023-07-28T08:53:40;20.30;99.90
18721;DHT22;9489;50.948;3.114;2023-07-28T08:56:06;20.40;99.90
18721;DHT22;9489;50.948;3.114;2023-07-28T08:58:32;20.40;99.90
18721;DHT22;9489;50.948;3.114;2023-07-28T09:00:57;20.30;99.90
18721;DHT22;9489;50.948;3.114;2023-07-28T09:03:26;20.40;99.90
18721;DHT22;9489;50.948;3.114;2023-07-28T09:06:03;20.50;99.90
18721;DHT22;9489;50.948;3.114;2023-07-28T09:08:32;20.60;99.90
18721;DHT22;9489;50.948;3.114;2023-07-28T09:11:02;20.60;99.90
18721;DHT22;9489;50.948;3.114;2023-07-28T09:13:38;20.70;99.90
18721;DHT22;9489;50.948;3.114;2023-07-28T09:16:05;20.70;99.90
18721;DHT22;9489;50.948;3.114;2023-07-28T09:18:30;21.00;99.90
18721;DHT22;9489;50.948;3.114;2023-07-28T09:20:56;21.20;99.90
18721;DHT22;9489;50.948;3.114;2023-07-28T09:23:29;21.60;99.90
18721;DHT22;9489;50.948;3.114;2023-07-28T09:26:01;22.00;99.90
18721;DHT22;9489;50.948;3.114;2023-07-28T09:28:37;22.20;99.90
18721;DHT22;9489;50.948;3.114;2023-07-28T09:31:04;22.30;99.90
18721;DHT22;9489;50.948;3.114;2023-07-28T09:33:32;22.00;99.90
18721;DHT22;9489;50.948;3.114;2023-07-28T09:36:13;22.00;99.90
18721;DHT22;9489;50.948;3.114;2023-07-28T09:38:41;21.80;99.90
18721;DHT22;9489;50.948;3.114;2023-07-28T09:41:08;21.80;99.90
18721;DHT22;9489;50.948;3.114;2023-07-28T09:43:37;21.60;99.90
18721;DHT22;9489;50.948;3.114;2023-07-28T09:46:04;21.60;99.90
18721;DHT22;9489;50.948;3.114;2023-07-28T09:48:32;21.50;99.90
18721;DHT22;9489;50.948;3.114;2023-07-28T09:51:01;21.50;99.90
18721;DHT22;9489;50.948;3.114;2023-07-28T09:53:28;21.50;99.90
18721;DHT22;9489;50.948;3.114;2023-07-28T09:55:55;21.60;99.90
18721;DHT22;9489;50.948;3.114;2023-07-28T09:58:24;21.50;99.90
18721;DHT22;9489;50.948;3.114;2023-07-28T10:00:51;21.50;99.90
18721;DHT22;9489;50.948;3.114;2023-07-28T10:03:16;21.20;99.90
18721;DHT22;9489;50.948;3.114;2023-07-28T10:05:43;20.80;99.90
18721;DHT22;9489;50.948;3.114;2023-07-28T10:08:09;20.60;99.90
18721;DHT22;9489;50.948;3.114;2023-07-28T10:10:35;20.70;99.90
18721;DHT22;9489;50.948;3.114;2023-07-28T10:13:01;20.60;99.90
18721;DHT22;9489;50.948;3.114;2023-07-28T10:15:30;20.50;99.90
18721;DHT22;9489;50.948;3.114;2023-07-28T10:17:57;20.50;99.90
18721;DHT22;9489;50.948;3.114;2023-07-28T10:20:35;20.60;99.90
18721;DHT22;9489;50.948;3.114;2023-07-28T10:23:06;20.80;99.90
18721;DHT22;9489;50.948;3.114;2023-07-28T10:25:36;21.00;99.90
18721;DHT22;9489;50.948;3.114;2023-07-28T10:28:03;21.10;99.90
18721;DHT22;9489;50.948;3.114;2023-07-28T10:30:35;21.10;99.90
18721;DHT22;9489;50.948;3.114;2023-07-28T10:33:01;21.00;99.90
18721;DHT22;9489;50.948;3.114;2023-07-28T10:35:28;21.10;99.90
18721;DHT22;9489;50.948;3.114;2023-07-28T10:37:56;21.10;99.90
18721;DHT22;9489;50.948;3.114;2023-07-28T10:42:57;21.10;99.90
18721;DHT22;9489;50.948;3.114;2023-07-28T10:45:26;21.30;99.90
18721;DHT22;9489;50.948;3.114;2023-07-28T10:47:54;21.40;99.90
18721;DHT22;9489;50.948;3.114;2023-07-28T10:50:21;21.30;99.90
18721;DHT22;9489;50.948;3.114;2023-07-28T10:52:47;21.30;99.90
18721;DHT22;9489;50.948;3.114;2023-07-28T10:55:31;21.40;99.90
18721;DHT22;9489;50.948;3.114;2023-07-28T10:57:57;21.60;99.90
18721;DHT22;9489;50.948;3.114;2023-07-28T11:00:23;21.80;99.90
18721;DHT22;9489;50.948;3.114;2023-07-28T11:02:51;22.00;97.80
18721;DHT22;9489;50.948;3.114;2023-07-28T11:05:27;22.10;89.20
18721;DHT22;9489;50.948;3.114;2023-07-28T11:08:00;22.20;77.00
18721;DHT22;9489;50.948;3.114;2023-07-28T11:10:31;22.30;84.80
18721;DHT22;9489;50.948;3.114;2023-07-28T11:13:03;22.60;40.20
18721;DHT22;9489;50.948;3.114;2023-07-28T11:15:29;22.80;20.00
18721;DHT22;9489;50.948;3.114;2023-07-28T11:17:54;23.10;17.20
18721;DHT22;9489;50.948;3.114;2023-07-28T11:20:21;23.40;1.00
18721;DHT22;9489;50.948;3.114;2023-07-28T11:22:52;23.50;1.00
18721;DHT22;9489;50.948;3.114;2023-07-28T11:25:18;23.50;1.00
18721;DHT22;9489;50.948;3.114;2023-07-28T11:27:45;23.60;1.00
18721;DHT22;9489;50.948;3.114;2023-07-28T11:30:15;23.60;1.00
18721;DHT22;9489;50.948;3.114;2023-07-28T11:32:46;23.60;1.00
18721;DHT22;9489;50.948;3.114;2023-07-28T11:35:14;23.50;1.00
18721;DHT22;9489;50.948;3.114;2023-07-28T11:37:42;23.50;1.00
18721;DHT22;9489;50.948;3.114;2023-07-28T11:40:09;23.60;1.00
18721;DHT22;9489;50.948;3.114;2023-07-28T11:42:47;23.60;1.00
18721;DHT22;9489;50.948;3.114;2023-07-28T11:45:15;23.40;1.00
18721;DHT22;9489;50.948;3.114;2023-07-28T11:50:34;23.20;1.00
18721;DHT22;9489;50.948;3.114;2023-07-28T11:53:00;23.30;1.00
18721;DHT22;9489;50.948;3.114;2023-07-28T11:55:25;23.50;1.00
18721;DHT22;9489;50.948;3.114;2023-07-28T11:57:52;23.50;1.00
18721;DHT22;9489;50.948;3.114;2023-07-28T12:00:18;23.50;1.00
18721;DHT22;9489;50.948;3.114;2023-07-28T12:03:03;23.30;1.00
18721;DHT22;9489;50.948;3.114;2023-07-28T12:05:29;23.20;1.00
18721;DHT22;9489;50.948;3.114;2023-07-28T12:07:55;23.00;1.00
18721;DHT22;9489;50.948;3.114;2023-07-28T12:10:21;22.70;1.00
18721;DHT22;9489;50.948;3.114;2023-07-28T12:12:47;22.70;1.00
18721;DHT22;9489;50.948;3.114;2023-07-28T12:15:26;22.60;1.00
18721;DHT22;9489;50.948;3.114;2023-07-28T12:20:42;22.50;1.00
18721;DHT22;9489;50.948;3.114;2023-07-28T12:23:13;22.50;1.00
18721;DHT22;9489;50.948;3.114;2023-07-28T12:25:39;22.50;1.00
18721;DHT22;9489;50.948;3.114;2023-07-28T12:28:05;22.50;1.00
18721;DHT22;9489;50.948;3.114;2023-07-28T12:30:34;22.50;1.00
18721;DHT22;9489;50.948;3.114;2023-07-28T12:33:00;22.50;1.00
18721;DHT22;9489;50.948;3.114;2023-07-28T12:35:27;22.50;1.00
18721;DHT22;9489;50.948;3.114;2023-07-28T12:38:06;22.50;1.00
18721;DHT22;9489;50.948;3.114;2023-07-28T12:40:33;22.60;1.00
18721;DHT22;9489;50.948;3.114;2023-07-28T12:43:01;22.90;1.00
18721;DHT22;9489;50.948;3.114;2023-07-28T12:45:27;23.10;1.00
18721;DHT22;9489;50.948;3.114;2023-07-28T12:47:53;23.30;1.00
18721;DHT22;9489;50.948;3.114;2023-07-28T12:50:20;23.50;1.00
18721;DHT22;9489;50.948;3.114;2023-07-28T12:52:46;23.60;1.00
18721;DHT22;9489;50.948;3.114;2023-07-28T12:55:11;23.70;1.00
18721;DHT22;9489;50.948;3.114;2023-07-28T12:57:37;23.80;1.00
18721;DHT22;9489;50.948;3.114;2023-07-28T13:00:03;23.90;1.00
18721;DHT22;9489;50.948;3.114;2023-07-28T13:02:40;23.80;1.00
18721;DHT22;9489;50.948;3.114;2023-07-28T13:05:07;23.90;1.00
18721;DHT22;9489;50.948;3.114;2023-07-28T13:07:34;23.70;1.00
18721;DHT22;9489;50.948;3.114;2023-07-28T13:10:00;23.60;1.00
18721;DHT22;9489;50.948;3.114;2023-07-28T13:12:25;23.60;1.00
18721;DHT22;9489;50.948;3.114;2023-07-28T13:14:51;23.70;1.00
18721;DHT22;9489;50.948;3.114;2023-07-28T13:17:17;23.80;1.00
18721;DHT22;9489;50.948;3.114;2023-07-28T13:19:42;24.00;1.00
18721;DHT22;9489;50.948;3.114;2023-07-28T13:22:08;24.20;1.00
18721;DHT22;9489;50.948;3.114;2023-07-28T13:24:33;24.30;1.00
18721;DHT22;9489;50.948;3.114;2023-07-28T13:26:59;24.10;1.00
18721;DHT22;9489;50.948;3.114;2023-07-28T13:29:24;24.00;1.00
18721;DHT22;9489;50.948;3.114;2023-07-28T13:31:50;23.90;1.00
18721;DHT22;9489;50.948;3.114;2023-07-28T13:34:15;23.80;1.00
18721;DHT22;9489;50.948;3.114;2023-07-28T13:36:41;23.70;1.00
18721;DHT22;9489;50.948;3.114;2023-07-28T13:39:08;23.90;1.00
18721;DHT22;9489;50.948;3.114;2023-07-28T13:41:34;24.20;1.00
18721;DHT22;9489;50.948;3.114;2023-07-28T13:44:00;24.40;1.00
18721;DHT22;9489;50.948;3.114;2023-07-28T13:46:25;24.70;1.00
18721;DHT22;9489;50.948;3.114;2023-07-28T13:48:51;24.90;99.90
18721;DHT22;9489;50.948;3.114;2023-07-28T13:51:17;25.10;99.90
18721;DHT22;9489;50.948;3.114;2023-07-28T13:53:42;25.30;99.90
18721;DHT22;9489;50.948;3.114;2023-07-28T13:56:08;25.40;1.00
18721;DHT22;9489;50.948;3.114;2023-07-28T13:58:33;25.60;99.90
18721;DHT22;9489;50.948;3.114;2023-07-28T14:00:59;25.60;1.00
18721;DHT22;9489;50.948;3.114;2023-07-28T14:03:25;25.60;1.00
18721;DHT22;9489;50.948;3.114;2023-07-28T14:05:50;25.70;1.00
18721;DHT22;9489;50.948;3.114;2023-07-28T14:08:16;25.60;1.00
18721;DHT22;9489;50.948;3.114;2023-07-28T14:10:45;25.60;1.00
18721;DHT22;9489;50.948;3.114;2023-07-28T14:13:11;25.40;1.00
18721;DHT22;9489;50.948;3.114;2023-07-28T14:15:38;25.30;1.00
18721;DHT22;9489;50.948;3.114;2023-07-28T14:18:03;25.10;99.90
18721;DHT22;9489;50.948;3.114;2023-07-28T14:20:29;24.90;99.90
18721;DHT22;9489;50.948;3.114;2023-07-28T14:22:55;24.90;99.90
18721;DHT22;9489;50.948;3.114;2023-07-28T14:25:20;25.00;99.90
18721;DHT22;9489;50.948;3.114;2023-07-28T14:27:46;25.30;99.90
18721;DHT22;9489;50.948;3.114;2023-07-28T14:30:12;25.60;97.10
18721;DHT22;9489;50.948;3.114;2023-07-28T14:32:38;25.90;1.00
18721;DHT22;9489;50.948;3.114;2023-07-28T14:35:03;26.00;99.90
18721;DHT22;9489;50.948;3.114;2023-07-28T14:37:29;26.10;1.00
18721;DHT22;9489;50.948;3.114;2023-07-28T14:39:54;26.30;99.90
18721;DHT22;9489;50.948;3.114;2023-07-28T14:42:20;26.50;1.00
18721;DHT22;9489;50.948;3.114;2023-07-28T14:44:46;26.60;1.00
18721;DHT22;9489;50.948;3.114;2023-07-28T14:47:11;26.40;1.00
18721;DHT22;9489;50.948;3.114;2023-07-28T14:49:37;26.20;1.00
18721;DHT22;9489;50.948;3.114;2023-07-28T14:52:03;26.20;1.00
18721;DHT22;9489;50.948;3.114;2023-07-28T14:54:28;26.00;1.00
18721;DHT22;9489;50.948;3.114;2023-07-28T14:56:54;26.10;1.00
18721;DHT22;9489;50.948;3.114;2023-07-28T14:59:19;26.00;1.00
18721;DHT22;9489;50.948;3.114;2023-07-28T15:01:45;25.80;1.00
18721;DHT22;9489;50.948;3.114;2023-07-28T15:04:12;25.70;1.00
18721;DHT22;9489;50.948;3.114;2023-07-28T15:06:39;25.70;1.00
18721;DHT22;9489;50.948;3.114;2023-07-28T15:09:05;25.50;1.00
18721;DHT22;9489;50.948;3.114;2023-07-28T15:11:31;25.40;1.00
18721;DHT22;9489;50.948;3.114;2023-07-28T15:13:57;25.40;1.00
18721;DHT22;9489;50.948;3.114;2023-07-28T15:16:22;25.20;1.00
18721;DHT22;9489;50.948;3.114;2023-07-28T15:18:48;25.30;1.00
18721;DHT22;9489;50.948;3.114;2023-07-28T15:21:13;25.30;1.00
18721;DHT22;9489;50.948;3.114;2023-07-28T15:23:39;25.40;1.00
18721;DHT22;9489;50.948;3.114;2023-07-28T15:26:04;25.40;1.00
18721;DHT22;9489;50.948;3.114;2023-07-28T15:28:30;25.30;1.00
18721;DHT22;9489;50.948;3.114;2023-07-28T15:30:55;25.30;1.00
18721;DHT22;9489;50.948;3.114;2023-07-28T15:33:21;25.20;23.60
18721;DHT22;9489;50.948;3.114;2023-07-28T15:35:56;25.10;1.00
18721;DHT22;9489;50.948;3.114;2023-07-28T15:38:22;25.10;1.00
18721;DHT22;9489;50.948;3.114;2023-07-28T15:40:48;25.20;99.90
18721;DHT22;9489;50.948;3.114;2023-07-28T15:43:13;25.40;1.00
18721;DHT22;9489;50.948;3.114;2023-07-28T15:45:39;25.40;1.00
18721;DHT22;9489;50.948;3.114;2023-07-28T15:48:04;25.40;99.90
18721;DHT22;9489;50.948;3.114;2023-07-28T15:50:30;25.40;59.90
18721;DHT22;9489;50.948;3.114;2023-07-28T15:52:56;25.30;1.00
18721;DHT22;9489;50.948;3.114;2023-07-28T15:55:21;25.40;99.90